sensor_id;sensor_type;location;lat;lon;timestamp;temperature;humidity
21518;DHT22;61765;45.794;24.150;2023-12-20T00:00:42;2.90;90.70
21518;DHT22;61765;45.794;24.150;2023-12-20T00:08:51;3.00;90.50
21518;DHT22;61765;45.794;24.150;2023-12-20T00:16:57;2.90;90.40
21518;DHT22;61765;45.794;24.150;2023-12-20T00:25:05;2.80;90.80
21518;DHT22;61765;45.794;24.150;2023-12-20T00:33:11;3.10;90.60
21518;DHT22;61765;45.794;24.150;2023-12-20T00:41:20;3.10;90.40
21518;DHT22;61765;45.794;24.150;2023-12-20T00:49:25;3.00;90.60
21518;DHT22;61765;45.794;24.150;2023-12-20T00:57:34;3.00;90.60
21518;DHT22;61765;45.794;24.150;2023-12-20T01:05:40;2.90;90.50
21518;DHT22;61765;45.794;24.150;2023-12-20T01:13:48;2.90;90.60
21518;DHT22;61765;45.794;24.150;2023-12-20T01:21:54;2.90;90.90
21518;DHT22;61765;45.794;24.150;2023-12-20T01:30:02;2.90;90.80
21518;DHT22;61765;45.794;24.150;2023-12-20T01:38:09;2.90;90.90
21518;DHT22;61765;45.794;24.150;2023-12-20T01:46:19;3.00;90.30
21518;DHT22;61765;45.794;24.150;2023-12-20T01:54:25;3.40;90.40
21518;DHT22;61765;45.794;24.150;2023-12-20T02:02:34;3.00;90.10
21518;DHT22;61765;45.794;24.150;2023-12-20T02:10:40;2.70;90.40
21518;DHT22;61765;45.794;24.150;2023-12-20T02:18:48;2.90;90.60
21518;DHT22;61765;45.794;24.150;2023-12-20T02:26:56;2.70;90.70
21518;DHT22;61765;45.794;24.150;2023-12-20T02:35:02;3.00;90.60
21518;DHT22;61765;45.794;24.150;2023-12-20T02:43:10;3.00;90.50
21518;DHT22;61765;45.794;24.150;2023-12-20T02:51:16;2.70;90.60
21518;DHT22;61765;45.794;24.150;2023-12-20T02:59:25;2.70;90.60
21518;DHT22;61765;45.794;24.150;2023-12-20T03:07:30;2.70;90.80
21518;DHT22;61765;45.794;24.150;2023-12-20T03:15:38;2.70;90.80
21518;DHT22;61765;45.794;24.150;2023-12-20T03:23:44;2.50;91.00
21518;DHT22;61765;45.794;24.150;2023-12-20T03:31:53;2.60;91.00
21518;DHT22;61765;45.794;24.150;2023-12-20T03:39:58;2.80;90.60
21518;DHT22;61765;45.794;24.150;2023-12-20T03:48:07;2.80;90.40
21518;DHT22;61765;45.794;24.150;2023-12-20T03:56:13;2.50;90.60
21518;DHT22;61765;45.794;24.150;2023-12-20T04:04:21;2.50;90.70
21518;DHT22;61765;45.794;24.150;2023-12-20T04:12:27;2.90;90.50
21518;DHT22;61765;45.794;24.150;2023-12-20T04:20:36;2.40;90.60
21518;DHT22;61765;45.794;24.150;2023-12-20T04:28:41;2.40;90.70
21518;DHT22;61765;45.794;24.150;2023-12-20T04:36:50;2.50;90.80
21518;DHT22;61765;45.794;24.150;2023-12-20T04:44:55;2.40;90.40
21518;DHT22;61765;45.794;24.150;2023-12-20T04:53:04;2.10;90.70
21518;DHT22;61765;45.794;24.150;2023-12-20T05:01:09;2.00;91.00
21518;DHT22;61765;45.794;24.150;2023-12-20T05:09:18;2.00;90.50
21518;DHT22;61765;45.794;24.150;2023-12-20T05:17:24;2.10;90.60
21518;DHT22;61765;45.794;24.150;2023-12-20T05:25:32;1.90;90.70
21518;DHT22;61765;45.794;24.150;2023-12-20T05:33:38;1.60;90.80
21518;DHT22;61765;45.794;24.150;2023-12-20T05:41:46;1.80;90.50
21518;DHT22;61765;45.794;24.150;2023-12-20T05:49:52;2.00;90.00
21518;DHT22;61765;45.794;24.150;2023-12-20T05:58:01;1.50;90.70
21518;DHT22;61765;45.794;24.150;2023-12-20T06:06:08;1.70;90.20
21518;DHT22;61765;45.794;24.150;2023-12-20T06:14:21;1.80;89.60
21518;DHT22;61765;45.794;24.150;2023-12-20T06:22:27;1.40;90.30
21518;DHT22;61765;45.794;24.150;2023-12-20T06:30:35;1.60;90.50
21518;DHT22;61765;45.794;24.150;2023-12-20T06:38:41;1.90;90.10
21518;DHT22;61765;45.794;24.150;2023-12-20T06:46:50;1.60;90.00
21518;DHT22;61765;45.794;24.150;2023-12-20T06:54:55;1.80;89.80
21518;DHT22;61765;45.794;24.150;2023-12-20T07:03:04;1.90;89.80
21518;DHT22;61765;45.794;24.150;2023-12-20T07:11:10;2.20;89.40
21518;DHT22;61765;45.794;24.150;2023-12-20T07:19:19;2.70;88.40
21518;DHT22;61765;45.794;24.150;2023-12-20T07:27:39;2.60;89.60
21518;DHT22;61765;45.794;24.150;2023-12-20T07:35:50;2.70;89.00
21518;DHT22;61765;45.794;24.150;2023-12-20T07:43:56;2.80;88.70
21518;DHT22;61765;45.794;24.150;2023-12-20T07:52:06;3.10;88.40
21518;DHT22;61765;45.794;24.150;2023-12-20T08:00:13;3.40;88.10
21518;DHT22;61765;45.794;24.150;2023-12-20T08:08:21;3.70;87.70
21518;DHT22;61765;45.794;24.150;2023-12-20T08:16:27;3.80;87.80
21518;DHT22;61765;45.794;24.150;2023-12-20T08:24:35;4.10;87.20
21518;DHT22;61765;45.794;24.150;2023-12-20T08:32:41;4.50;87.20
21518;DHT22;61765;45.794;24.150;2023-12-20T08:40:49;4.90;86.50
21518;DHT22;61765;45.794;24.150;2023-12-20T08:48:55;5.10;86.60
21518;DHT22;61765;45.794;24.150;2023-12-20T08:57:04;5.40;86.10
21518;DHT22;61765;45.794;24.150;2023-12-20T09:05:10;6.00;85.70
21518;DHT22;61765;45.794;24.150;2023-12-20T09:13:19;6.10;83.80
21518;DHT22;61765;45.794;24.150;2023-12-20T09:21:30;6.10;84.90
21518;DHT22;61765;45.794;24.150;2023-12-20T09:29:39;6.10;85.30
21518;DHT22;61765;45.794;24.150;2023-12-20T09:37:44;6.70;84.50
21518;DHT22;61765;45.794;24.150;2023-12-20T09:45:53;7.00;84.40
21518;DHT22;61765;45.794;24.150;2023-12-20T09:54:00;7.80;83.60
21518;DHT22;61765;45.794;24.150;2023-12-20T10:02:13;8.20;83.20
21518;DHT22;61765;45.794;24.150;2023-12-20T10:10:20;8.40;82.80
21518;DHT22;61765;45.794;24.150;2023-12-20T10:18:39;8.40;82.20
21518;DHT22;61765;45.794;24.150;2023-12-20T10:26:45;8.40;82.40
21518;DHT22;61765;45.794;24.150;2023-12-20T10:34:54;8.70;82.70
21518;DHT22;61765;45.794;24.150;2023-12-20T10:43:01;9.00;81.80
21518;DHT22;61765;45.794;24.150;2023-12-20T10:51:11;9.00;81.60
21518;DHT22;61765;45.794;24.150;2023-12-20T10:59:20;9.10;81.90
21518;DHT22;61765;45.794;24.150;2023-12-20T11:07:33;9.40;81.20
21518;DHT22;61765;45.794;24.150;2023-12-20T11:15:41;9.50;81.60
21518;DHT22;61765;45.794;24.150;2023-12-20T11:23:49;9.60;81.20
21518;DHT22;61765;45.794;24.150;2023-12-20T11:31:55;9.60;81.20
21518;DHT22;61765;45.794;24.150;2023-12-20T11:40:06;9.90;80.50
21518;DHT22;61765;45.794;24.150;2023-12-20T11:48:12;9.90;80.00
21518;DHT22;61765;45.794;24.150;2023-12-20T11:56:21;9.30;81.00
21518;DHT22;61765;45.794;24.150;2023-12-20T12:04:29;9.50;82.10
21518;DHT22;61765;45.794;24.150;2023-12-20T12:12:38;9.70;82.10
21518;DHT22;61765;45.794;24.150;2023-12-20T12:20:44;9.60;81.70
21518;DHT22;61765;45.794;24.150;2023-12-20T12:28:52;9.80;81.70
21518;DHT22;61765;45.794;24.150;2023-12-20T12:36:58;9.40;82.40
21518;DHT22;61765;45.794;24.150;2023-12-20T12:45:07;9.30;82.70
21518;DHT22;61765;45.794;24.150;2023-12-20T12:53:13;9.60;82.60
21518;DHT22;61765;45.794;24.150;2023-12-20T13:01:24;9.60;82.30
21518;DHT22;61765;45.794;24.150;2023-12-20T13:09:38;9.60;82.80
21518;DHT22;61765;45.794;24.150;2023-12-20T13:17:47;9.50;82.80
21518;DHT22;61765;45.794;24.150;2023-12-20T13:25:53;9.40;83.30
21518;DHT22;61765;45.794;24.150;2023-12-20T13:34:01;9.40;83.60
21518;DHT22;61765;45.794;24.150;2023-12-20T13:42:07;9.40;83.90
21518;DHT22;61765;45.794;24.150;2023-12-20T13:50:16;8.90;84.90
21518;DHT22;61765;45.794;24.150;2023-12-20T13:58:22;8.90;85.20
21518;DHT22;61765;45.794;24.150;2023-12-20T14:06:30;8.90;85.30
21518;DHT22;61765;45.794;24.150;2023-12-20T14:14:36;8.70;85.50
21518;DHT22;61765;45.794;24.150;2023-12-20T14:22:44;8.90;86.30
21518;DHT22;61765;45.794;24.150;2023-12-20T14:30:50;8.40;87.10
21518;DHT22;61765;45.794;24.150;2023-12-20T14:38:58;8.30;88.00
21518;DHT22;61765;45.794;24.150;2023-12-20T14:47:06;8.40;87.50
21518;DHT22;61765;45.794;24.150;2023-12-20T14:55:14;8.30;88.00
21518;DHT22;61765;45.794;24.150;2023-12-20T15:03:20;8.20;88.50
21518;DHT22;61765;45.794;24.150;2023-12-20T15:11:28;8.50;88.90
21518;DHT22;61765;45.794;24.150;2023-12-20T15:19:34;7.80;89.50
21518;DHT22;61765;45.794;24.150;2023-12-20T15:27:42;7.80;89.80
21518;DHT22;61765;45.794;24.150;2023-12-20T15:35:48;7.80;90.00
21518;DHT22;61765;45.794;24.150;2023-12-20T15:44:00;7.80;89.50
21518;DHT22;61765;45.794;24.150;2023-12-20T15:52:06;7.80;89.40
21518;DHT22;61765;45.794;24.150;2023-12-20T16:00:15;7.70;89.90
21518;DHT22;61765;45.794;24.150;2023-12-20T16:08:21;7.60;89.90
21518;DHT22;61765;45.794;24.150;2023-12-20T16:16:30;7.60;90.20
21518;DHT22;61765;45.794;24.150;2023-12-20T16:24:36;7.60;90.20
21518;DHT22;61765;45.794;24.150;2023-12-20T16:32:44;7.40;90.10
21518;DHT22;61765;45.794;24.150;2023-12-20T16:40:51;7.50;90.10
21518;DHT22;61765;45.794;24.150;2023-12-20T16:49:00;7.50;90.00
21518;DHT22;61765;45.794;24.150;2023-12-20T16:57:06;7.30;90.00
21518;DHT22;61765;45.794;24.150;2023-12-20T17:05:14;6.60;90.90
21518;DHT22;61765;45.794;24.150;2023-12-20T17:13:21;6.80;91.00
21518;DHT22;61765;45.794;24.150;2023-12-20T17:21:29;6.60;91.00
21518;DHT22;61765;45.794;24.150;2023-12-20T17:29:35;7.00;90.80
21518;DHT22;61765;45.794;24.150;2023-12-20T17:37:43;7.00;90.60
21518;DHT22;61765;45.794;24.150;2023-12-20T17:45:50;7.00;90.60
21518;DHT22;61765;45.794;24.150;2023-12-20T17:53:58;7.00;90.60
21518;DHT22;61765;45.794;24.150;2023-12-20T18:02:06;6.80;90.70
21518;DHT22;61765;45.794;24.150;2023-12-20T18:10:15;6.50;90.90
21518;DHT22;61765;45.794;24.150;2023-12-20T18:18:21;6.60;91.00
21518;DHT22;61765;45.794;24.150;2023-12-20T18:26:29;6.50;90.70
21518;DHT22;61765;45.794;24.150;2023-12-20T18:34:38;6.40;90.70
21518;DHT22;61765;45.794;24.150;2023-12-20T18:42:46;6.40;90.90
21518;DHT22;61765;45.794;24.150;2023-12-20T18:50:52;6.40;91.00
21518;DHT22;61765;45.794;24.150;2023-12-20T18:59:00;6.50;90.90
21518;DHT22;61765;45.794;24.150;2023-12-20T19:07:06;6.60;90.70
21518;DHT22;61765;45.794;24.150;2023-12-20T19:15:14;6.60;90.80
21518;DHT22;61765;45.794;24.150;2023-12-20T19:23:21;6.70;90.70
21518;DHT22;61765;45.794;24.150;2023-12-20T19:31:29;6.60;90.80
21518;DHT22;61765;45.794;24.150;2023-12-20T19:39:35;6.50;91.20
21518;DHT22;61765;45.794;24.150;2023-12-20T19:47:47;6.60;91.10
21518;DHT22;61765;45.794;24.150;2023-12-20T19:55:54;6.70;90.80
21518;DHT22;61765;45.794;24.150;2023-12-20T20:04:03;6.40;90.90
21518;DHT22;61765;45.794;24.150;2023-12-20T20:12:12;6.70;90.80
21518;DHT22;61765;45.794;24.150;2023-12-20T20:20:22;6.00;91.00
21518;DHT22;61765;45.794;24.150;2023-12-20T20:28:30;6.00;91.30
21518;DHT22;61765;45.794;24.150;2023-12-20T20:36:38;6.10;91.10
21518;DHT22;61765;45.794;24.150;2023-12-20T20:44:44;6.70;90.70
21518;DHT22;61765;45.794;24.150;2023-12-20T20:52:53;6.50;90.60
21518;DHT22;61765;45.794;24.150;2023-12-20T21:01:00;6.50;90.50
21518;DHT22;61765;45.794;24.150;2023-12-20T21:09:10;6.20;90.70
21518;DHT22;61765;45.794;24.150;2023-12-20T21:17:17;6.30;91.10
21518;DHT22;61765;45.794;24.150;2023-12-20T21:25:26;6.40;90.60
21518;DHT22;61765;45.794;24.150;2023-12-20T21:33:31;6.40;90.50
21518;DHT22;61765;45.794;24.150;2023-12-20T21:41:40;6.40;90.60
21518;DHT22;61765;45.794;24.150;2023-12-20T21:49:46;6.50;90.50
21518;DHT22;61765;45.794;24.150;2023-12-20T21:57:54;6.40;90.40
21518;DHT22;61765;45.794;24.150;2023-12-20T22:06:00;6.50;90.30
21518;DHT22;61765;45.794;24.150;2023-12-20T22:14:09;6.40;90.40
21518;DHT22;61765;45.794;24.150;2023-12-20T22:22:15;6.70;90.20
21518;DHT22;61765;45.794;24.150;2023-12-20T22:30:24;6.40;90.40
21518;DHT22;61765;45.794;24.150;2023-12-20T22:38:29;6.40;90.40
21518;DHT22;61765;45.794;24.150;2023-12-20T22:46:38;6.40;90.50
21518;DHT22;61765;45.794;24.150;2023-12-20T22:54:47;6.40;90.60
21518;DHT22;61765;45.794;24.150;2023-12-20T23:02:59;6.20;90.60
21518;DHT22;61765;45.794;24.150;2023-12-20T23:11:08;6.40;90.50
21518;DHT22;61765;45.794;24.150;2023-12-20T23:19:19;6.50;90.60
21518;DHT22;61765;45.794;24.150;2023-12-20T23:27:25;6.60;90.40
21518;DHT22;61765;45.794;24.150;2023-12-20T23:35:34;6.30;90.50
21518;DHT22;61765;45.794;24.150;2023-12-20T23:43:41;6.50;90.60
21518;DHT22;61765;45.794;24.150;2023-12-20T23:51:50;6.40;90.70
